Time;durP1;ratioP1;P1;durP2;ratioP2;P2;SDS_P1;SDS_P2;PMS_P1;PMS_P2;Temp;Humidity;BMP_temperature;BMP_pressure;BME280_temperature;BME280_humidity;BME280_pressure;Samples;Min_cycle;Max_cycle;Signal;HPM_P1;HPM_P2
2023/02/26 00:01:35;;;;;;;4.60;2.13;;;;;;;;;;5049427;28;20025;-77
2023/02/26 00:04:03;;;;;;;5.25;2.17;;;;;;;;;;5049670;28;20053;-77
2023/02/26 00:06:31;;;;;;;5.00;2.30;;;;;;;;;;5051379;28;20472;-77
2023/02/26 00:08:56;;;;;;;5.35;2.42;;;;;;;;;;5051659;28;20461;-77
2023/02/26 00:11:22;;;;;;;4.90;2.20;;;;;;;;;;5051346;28;20063;-77
2023/02/26 00:13:48;;;;;;;6.43;2.38;;;;;;;;;;5022151;28;20515;-77
2023/02/26 00:16:29;;;;;;;9.32;2.30;;;;;;;;;;5050649;28;20465;-77
2023/02/26 00:18:56;;;;;;;5.65;2.30;;;;;;;;;;5031415;28;20029;-77
2023/02/26 00:21:23;;;;;;;4.10;2.15;;;;;;;;;;5031417;28;20025;-77
2023/02/26 00:23:49;;;;;;;5.82;1.90;;;;;;;;;;5030354;28;20482;-77
2023/02/26 00:26:14;;;;;;;5.03;1.85;;;;;;;;;;5051511;28;20036;-77
2023/02/26 00:28:40;;;;;;;5.88;2.08;;;;;;;;;;5025156;28;20029;-77
2023/02/26 00:31:06;;;;;;;5.30;2.00;;;;;;;;;;5030718;28;20028;-77
2023/02/26 00:33:32;;;;;;;5.90;2.17;;;;;;;;;;5050759;28;20048;-77
2023/02/26 00:36:11;;;;;;;5.78;1.95;;;;;;;;;;5031084;28;20480;-77
2023/02/26 00:38:37;;;;;;;5.53;2.30;;;;;;;;;;5038116;28;20021;-77
2023/02/26 00:41:03;;;;;;;3.42;1.75;;;;;;;;;;5035689;28;20386;-77
2023/02/26 00:43:29;;;;;;;5.38;1.83;;;;;;;;;;5045394;28;20032;-77
2023/02/26 00:45:57;;;;;;;4.68;1.80;;;;;;;;;;5041324;28;20036;-77
2023/02/26 00:48:28;;;;;;;6.15;2.22;;;;;;;;;;5043432;28;20023;-77
2023/02/26 00:51:05;;;;;;;6.25;2.17;;;;;;;;;;5036430;28;20025;-77
2023/02/26 00:53:39;;;;;;;5.57;1.77;;;;;;;;;;5028988;28;20041;-77
2023/02/26 00:56:04;;;;;;;6.30;1.83;;;;;;;;;;5049454;28;20028;-77
2023/02/26 00:58:30;;;;;;;4.90;1.77;;;;;;;;;;5037563;28;20029;-77
2023/02/26 01:00:55;;;;;;;6.80;1.88;;;;;;;;;;5031970;28;20115;-77
2023/02/26 01:03:21;;;;;;;5.05;1.85;;;;;;;;;;5050016;28;20025;-77
2023/02/26 01:05:46;;;;;;;4.20;1.58;;;;;;;;;;5034120;28;20476;-77
2023/02/26 01:08:18;;;;;;;5.25;1.45;;;;;;;;;;5051283;28;20039;-77
2023/02/26 01:10:44;;;;;;;4.40;1.70;;;;;;;;;;5019686;28;20029;-77
2023/02/26 01:13:11;;;;;;;4.57;1.48;;;;;;;;;;5024095;28;20447;-77
2023/02/26 01:15:37;;;;;;;3.28;1.13;;;;;;;;;;5048221;28;20100;-77
2023/02/26 01:18:15;;;;;;;4.95;1.67;;;;;;;;;;5049087;28;20025;-77
2023/02/26 01:20:47;;;;;;;6.53;1.60;;;;;;;;;;5030494;28;20436;-77
2023/02/26 01:23:21;;;;;;;4.00;1.47;;;;;;;;;;5038002;28;20064;-77
2023/02/26 01:25:57;;;;;;;4.90;1.77;;;;;;;;;;5020231;28;20484;-77
2023/02/26 01:28:24;;;;;;;4.82;1.48;;;;;;;;;;5031332;28;20457;-77
2023/02/26 01:30:52;;;;;;;4.60;1.48;;;;;;;;;;5023193;28;20489;-77
2023/02/26 01:33:33;;;;;;;4.03;1.40;;;;;;;;;;5024594;28;20055;-77
2023/02/26 01:36:30;;;;;;;4.32;1.65;;;;;;;;;;5017193;28;20029;-77
2023/02/26 01:39:10;;;;;;;4.85;1.30;;;;;;;;;;5022058;28;20475;-77
2023/02/26 01:41:47;;;;;;;4.65;1.30;;;;;;;;;;5015718;28;20032;-77
2023/02/26 01:44:25;;;;;;;4.28;1.02;;;;;;;;;;5033837;28;20108;-77
2023/02/26 01:46:59;;;;;;;2.75;1.20;;;;;;;;;;5028907;28;20104;-77
2023/02/26 01:49:25;;;;;;;6.10;1.58;;;;;;;;;;5046688;28;20388;-77
2023/02/26 01:51:54;;;;;;;5.57;1.42;;;;;;;;;;5051539;28;20461;-77
2023/02/26 01:54:27;;;;;;;3.53;1.42;;;;;;;;;;5023762;28;20113;-77
2023/02/26 01:57:03;;;;;;;2.80;1.48;;;;;;;;;;5032335;28;20033;-77
2023/02/26 01:59:30;;;;;;;4.47;1.73;;;;;;;;;;5023467;28;20037;-77
2023/02/26 02:01:58;;;;;;;3.58;1.67;;;;;;;;;;5047532;28;20396;-77
2023/02/26 02:04:25;;;;;;;5.47;1.60;;;;;;;;;;5025197;28;20114;-77
2023/02/26 02:06:52;;;;;;;3.00;1.50;;;;;;;;;;5034432;28;20037;-77
2023/02/26 02:09:18;;;;;;;5.72;1.98;;;;;;;;;;5055058;28;20032;-77
2023/02/26 02:12:28;;;;;;;5.03;1.77;;;;;;;;;;5049015;28;20124;-77
2023/02/26 02:15:12;;;;;;;2.90;1.50;;;;;;;;;;5032344;28;20476;-77
2023/02/26 02:18:17;;;;;;;6.63;1.90;;;;;;;;;;5032634;28;20040;-77
2023/02/26 02:21:12;;;;;;;3.83;1.45;;;;;;;;;;5034928;28;20442;-77
2023/02/26 02:23:56;;;;;;;5.57;1.65;;;;;;;;;;5014721;28;20060;-77
2023/02/26 02:26:43;;;;;;;6.68;1.70;;;;;;;;;;5048799;28;20082;-77
2023/02/26 02:29:30;;;;;;;2.80;1.40;;;;;;;;;;5034931;28;20050;-77
2023/02/26 02:32:05;;;;;;;3.97;1.50;;;;;;;;;;5048581;28;20056;-77
2023/02/26 02:34:38;;;;;;;5.47;1.77;;;;;;;;;;5034768;28;20017;-77
2023/02/26 02:37:16;;;;;;;3.45;1.48;;;;;;;;;;5027481;28;20060;-77
2023/02/26 02:39:45;;;;;;;4.60;1.65;;;;;;;;;;5030941;28;20127;-77
2023/02/26 02:42:34;;;;;;;4.65;1.63;;;;;;;;;;5028695;28;20025;-77
2023/02/26 02:45:06;;;;;;;4.50;1.30;;;;;;;;;;5030506;28;20025;-77
2023/02/26 02:47:34;;;;;;;3.55;1.52;;;;;;;;;;5051742;28;20216;-77
2023/02/26 02:50:12;;;;;;;4.32;1.20;;;;;;;;;;5030458;28;20064;-77
2023/02/26 02:52:51;;;;;;;4.22;1.17;;;;;;;;;;5033453;28;20078;-77
2023/02/26 02:55:25;;;;;;;4.57;1.50;;;;;;;;;;5027041;28;20473;-77
2023/02/26 02:58:05;;;;;;;4.13;1.23;;;;;;;;;;5024020;28;20445;-77
2023/02/26 03:00:35;;;;;;;5.10;1.30;;;;;;;;;;5042240;28;20022;-77
2023/02/26 03:03:16;;;;;;;4.78;1.20;;;;;;;;;;5047344;28;20376;-77
2023/02/26 03:05:42;;;;;;;3.88;1.10;;;;;;;;;;5043052;28;20109;-77
2023/02/26 03:08:19;;;;;;;2.13;0.90;;;;;;;;;;5039638;28;20112;-77
2023/02/26 03:10:45;;;;;;;6.28;1.20;;;;;;;;;;5039496;28;20029;-77
2023/02/26 03:13:20;;;;;;;2.88;1.23;;;;;;;;;;5029578;28;20536;-77
2023/02/26 03:16:00;;;;;;;4.18;1.45;;;;;;;;;;5044219;28;20435;-77
2023/02/26 03:18:44;;;;;;;2.83;1.55;;;;;;;;;;5039427;28;20094;-77
2023/02/26 03:21:23;;;;;;;2.58;1.00;;;;;;;;;;5041131;28;20063;-77
2023/02/26 03:24:12;;;;;;;1.77;1.15;;;;;;;;;;5036576;28;20472;-77
2023/02/26 03:26:46;;;;;;;3.25;1.10;;;;;;;;;;5046326;28;20362;-77
2023/02/26 03:29:25;;;;;;;3.03;1.13;;;;;;;;;;5023919;28;20481;-77
2023/02/26 03:31:55;;;;;;;2.00;1.10;;;;;;;;;;5034290;28;20029;-77
2023/02/26 03:34:41;;;;;;;2.45;0.85;;;;;;;;;;5035845;28;20025;-77
2023/02/26 03:37:23;;;;;;;3.70;1.35;;;;;;;;;;5046138;28;20032;-77
2023/02/26 03:39:56;;;;;;;3.78;1.02;;;;;;;;;;5033067;28;20065;-77
2023/02/26 03:42:41;;;;;;;3.80;0.90;;;;;;;;;;5046013;28;20519;-77
2023/02/26 03:45:12;;;;;;;1.80;0.80;;;;;;;;;;5040090;28;20032;-77
2023/02/26 03:47:41;;;;;;;1.80;0.75;;;;;;;;;;5038790;28;20043;-77
2023/02/26 03:50:12;;;;;;;4.03;0.90;;;;;;;;;;5022923;28;20489;-78
2023/02/26 03:52:42;;;;;;;3.15;0.80;;;;;;;;;;5034711;28;20032;-77
2023/02/26 03:55:21;;;;;;;1.80;0.85;;;;;;;;;;5019650;28;20025;-77
2023/02/26 03:57:48;;;;;;;2.28;0.63;;;;;;;;;;5020651;28;21310;-77
2023/02/26 04:00:15;;;;;;;2.10;0.82;;;;;;;;;;5039480;28;20024;-77
2023/02/26 04:03:25;;;;;;;4.15;0.70;;;;;;;;;;5039068;28;20021;-77
2023/02/26 04:05:51;;;;;;;3.28;0.68;;;;;;;;;;5037084;28;20036;-77
2023/02/26 04:08:17;;;;;;;3.40;0.70;;;;;;;;;;5038403;28;20539;-77
2023/02/26 04:10:56;;;;;;;2.53;0.70;;;;;;;;;;5023369;28;20033;-77
2023/02/26 04:13:22;;;;;;;2.65;0.65;;;;;;;;;;5028403;28;20718;-77
2023/02/26 04:15:47;;;;;;;1.95;0.50;;;;;;;;;;5036872;28;20031;-77
2023/02/26 04:18:13;;;;;;;2.05;0.63;;;;;;;;;;5019328;28;20174;-77
2023/02/26 04:20:38;;;;;;;2.15;0.65;;;;;;;;;;5036603;28;20556;-77
2023/02/26 04:23:03;;;;;;;0.85;0.50;;;;;;;;;;5014207;28;20083;-77
2023/02/26 04:25:29;;;;;;;2.25;0.65;;;;;;;;;;5021690;28;20408;-77
2023/02/26 04:27:55;;;;;;;1.63;0.57;;;;;;;;;;5017850;28;20389;-77
2023/02/26 04:30:20;;;;;;;2.05;0.65;;;;;;;;;;5032550;28;20106;-77
2023/02/26 04:32:46;;;;;;;4.78;0.70;;;;;;;;;;5018515;28;20535;-77
2023/02/26 04:35:11;;;;;;;4.57;0.90;;;;;;;;;;5028390;28;20036;-77
2023/02/26 04:37:37;;;;;;;3.67;0.70;;;;;;;;;;5041657;28;20032;-77
2023/02/26 04:40:03;;;;;;;2.03;0.73;;;;;;;;;;5040975;28;20053;-77
2023/02/26 04:42:28;;;;;;;3.95;0.80;;;;;;;;;;5024914;28;20524;-77
2023/02/26 04:44:54;;;;;;;3.13;0.80;;;;;;;;;;5041089;28;20115;-77
2023/02/26 04:47:19;;;;;;;2.83;0.80;;;;;;;;;;5042195;28;20029;-77
2023/02/26 04:49:45;;;;;;;2.50;0.77;;;;;;;;;;5023239;28;20044;-77
2023/02/26 04:52:10;;;;;;;1.67;0.60;;;;;;;;;;5022747;28;20120;-77
2023/02/26 04:54:36;;;;;;;3.55;0.90;;;;;;;;;;5026665;28;20028;-77
2023/02/26 04:57:02;;;;;;;4.72;0.90;;;;;;;;;;5017692;28;20028;-77
2023/02/26 04:59:27;;;;;;;2.45;0.65;;;;;;;;;;5033953;28;20074;-77
2023/02/26 05:01:53;;;;;;;2.35;1.02;;;;;;;;;;5039213;28;20139;-77
2023/02/26 05:04:18;;;;;;;6.70;0.90;;;;;;;;;;5044868;28;20029;-77
2023/02/26 05:06:44;;;;;;;1.20;0.70;;;;;;;;;;5026855;28;20056;-77
2023/02/26 05:09:09;;;;;;;3.50;0.95;;;;;;;;;;5045209;28;20033;-77
2023/02/26 05:11:34;;;;;;;3.70;0.68;;;;;;;;;;5032199;28;20087;-77
2023/02/26 05:14:00;;;;;;;1.15;0.47;;;;;;;;;;5035612;28;20067;-77
2023/02/26 05:16:25;;;;;;;1.25;0.60;;;;;;;;;;5017701;28;20552;-77
2023/02/26 05:18:51;;;;;;;4.88;0.70;;;;;;;;;;5032974;28;20025;-77
2023/02/26 05:21:16;;;;;;;1.98;0.50;;;;;;;;;;5027400;28;20102;-77
2023/02/26 05:23:41;;;;;;;2.25;0.82;;;;;;;;;;5018424;28;20056;-77
2023/02/26 05:26:07;;;;;;;3.15;0.60;;;;;;;;;;5017358;28;20028;-77
2023/02/26 05:28:32;;;;;;;3.15;0.70;;;;;;;;;;5018250;28;20499;-77
2023/02/26 05:30:58;;;;;;;2.63;0.70;;;;;;;;;;5018889;28;20040;-77
2023/02/26 05:33:24;;;;;;;0.82;0.43;;;;;;;;;;5021940;28;20027;-77
2023/02/26 05:35:50;;;;;;;1.98;0.52;;;;;;;;;;5022993;28;20503;-77
2023/02/26 05:38:16;;;;;;;1.30;0.55;;;;;;;;;;5037693;28;20121;-77
2023/02/26 05:40:41;;;;;;;4.30;0.73;;;;;;;;;;5041177;28;20086;-77
2023/02/26 05:43:07;;;;;;;5.50;0.68;;;;;;;;;;5033782;28;20037;-77
2023/02/26 05:45:32;;;;;;;2.28;0.77;;;;;;;;;;5035453;28;20098;-77
2023/02/26 05:47:58;;;;;;;2.47;0.52;;;;;;;;;;5048525;28;20025;-77
2023/02/26 05:50:23;;;;;;;3.03;0.50;;;;;;;;;;5050655;28;20097;-77
2023/02/26 05:52:49;;;;;;;2.55;0.57;;;;;;;;;;5049009;28;20116;-77
2023/02/26 05:55:14;;;;;;;2.55;0.70;;;;;;;;;;5037339;28;20495;-77
2023/02/26 05:57:40;;;;;;;3.53;0.55;;;;;;;;;;5049237;28;20040;-77
2023/02/26 06:00:06;;;;;;;1.58;0.60;;;;;;;;;;5032185;28;20178;-77
2023/02/26 06:02:32;;;;;;;0.77;0.40;;;;;;;;;;5026754;28;20029;-77
2023/02/26 06:04:57;;;;;;;2.67;0.60;;;;;;;;;;5031814;28;20492;-77
2023/02/26 06:07:23;;;;;;;4.53;0.57;;;;;;;;;;5034649;28;20029;-77
2023/02/26 06:09:49;;;;;;;0.70;0.40;;;;;;;;;;5044776;28;20029;-77
2023/02/26 06:12:15;;;;;;;3.70;0.60;;;;;;;;;;5009751;28;20115;-77
2023/02/26 06:14:40;;;;;;;3.50;0.50;;;;;;;;;;5025009;28;20469;-77
2023/02/26 06:17:06;;;;;;;5.70;0.60;;;;;;;;;;5039254;28;20100;-77
2023/02/26 06:19:32;;;;;;;3.30;0.63;;;;;;;;;;5041722;28;20052;-77
2023/02/26 06:21:57;;;;;;;1.55;0.40;;;;;;;;;;5038707;28;20119;-78
2023/02/26 06:24:23;;;;;;;0.73;0.43;;;;;;;;;;5012799;28;20033;-77
2023/02/26 06:26:48;;;;;;;2.47;0.77;;;;;;;;;;5020242;28;20433;-77
2023/02/26 06:29:14;;;;;;;2.08;0.80;;;;;;;;;;5022573;28;20036;-78
2023/02/26 06:31:39;;;;;;;3.70;0.50;;;;;;;;;;5021923;28;20036;-77
2023/02/26 06:34:05;;;;;;;5.10;0.90;;;;;;;;;;5021846;28;20500;-77
2023/02/26 06:36:30;;;;;;;1.48;0.50;;;;;;;;;;5020428;28;20025;-77
2023/02/26 06:38:56;;;;;;;3.38;0.47;;;;;;;;;;5033394;28;20060;-77
2023/02/26 06:41:21;;;;;;;2.83;0.55;;;;;;;;;;5018366;28;20396;-77
2023/02/26 06:43:47;;;;;;;2.00;0.45;;;;;;;;;;5014593;28;20037;-77
2023/02/26 06:46:12;;;;;;;0.57;0.30;;;;;;;;;;5034592;28;20040;-77
2023/02/26 06:48:38;;;;;;;5.35;0.60;;;;;;;;;;5023069;28;20027;-77
2023/02/26 06:51:03;;;;;;;4.70;0.70;;;;;;;;;;5034749;28;20358;-77
2023/02/26 06:53:29;;;;;;;2.17;0.80;;;;;;;;;;5022012;28;21352;-77
2023/02/26 06:55:54;;;;;;;3.30;0.57;;;;;;;;;;5036716;28;20044;-77
2023/02/26 06:58:20;;;;;;;1.25;0.40;;;;;;;;;;5025779;28;20098;-77
2023/02/26 07:00:45;;;;;;;3.90;0.63;;;;;;;;;;5016313;28;20043;-77
2023/02/26 07:03:14;;;;;;;1.50;0.73;;;;;;;;;;5022661;28;20543;-77
2023/02/26 07:05:40;;;;;;;2.15;0.63;;;;;;;;;;5036829;28;20029;-77
2023/02/26 07:08:06;;;;;;;1.05;0.47;;;;;;;;;;5035141;28;20126;-77
2023/02/26 07:10:34;;;;;;;1.30;0.55;;;;;;;;;;5020413;28;20082;-77
2023/02/26 07:12:59;;;;;;;1.70;0.50;;;;;;;;;;5017565;28;20017;-77
2023/02/26 07:15:25;;;;;;;0.80;0.50;;;;;;;;;;5021439;28;20083;-77
2023/02/26 07:17:50;;;;;;;1.35;0.45;;;;;;;;;;5034184;28;20059;-77
2023/02/26 07:20:17;;;;;;;2.30;0.82;;;;;;;;;;5036444;28;20068;-77
2023/02/26 07:22:43;;;;;;;1.05;0.50;;;;;;;;;;5024497;28;20429;-77
2023/02/26 07:25:09;;;;;;;1.13;0.43;;;;;;;;;;5023088;28;20780;-77
2023/02/26 07:27:35;;;;;;;3.22;0.50;;;;;;;;;;5044268;28;20029;-77
2023/02/26 07:30:01;;;;;;;2.60;0.55;;;;;;;;;;5030915;28;20031;-77
2023/02/26 07:32:27;;;;;;;2.40;0.47;;;;;;;;;;5042232;28;20112;-77
2023/02/26 07:34:52;;;;;;;1.42;0.50;;;;;;;;;;5018167;28;20119;-77
2023/02/26 07:37:18;;;;;;;0.65;0.40;;;;;;;;;;5034803;28;20155;-77
2023/02/26 07:39:43;;;;;;;1.30;0.40;;;;;;;;;;5017655;28;20489;-77
2023/02/26 07:42:09;;;;;;;1.20;0.40;;;;;;;;;;5034118;28;20032;-77
2023/02/26 07:44:34;;;;;;;3.58;0.75;;;;;;;;;;5016369;28;20043;-77
2023/02/26 07:47:00;;;;;;;3.50;0.70;;;;;;;;;;5014736;28;20094;-77
2023/02/26 07:49:25;;;;;;;1.40;0.47;;;;;;;;;;5022429;28;20094;-77
2023/02/26 07:51:51;;;;;;;3.65;0.63;;;;;;;;;;5033387;28;20503;-77
2023/02/26 07:54:16;;;;;;;1.95;0.57;;;;;;;;;;5020816;28;20086;-77
2023/02/26 07:56:41;;;;;;;2.05;0.77;;;;;;;;;;5035445;28;20021;-77
2023/02/26 07:59:08;;;;;;;2.45;0.73;;;;;;;;;;5031078;28;20037;-77
2023/02/26 08:01:34;;;;;;;2.15;0.45;;;;;;;;;;5035576;28;20022;-76
2023/02/26 08:04:00;;;;;;;0.95;0.40;;;;;;;;;;5021787;28;20053;-77
2023/02/26 08:06:26;;;;;;;1.50;0.50;;;;;;;;;;5028087;28;20133;-77
2023/02/26 08:08:51;;;;;;;3.08;0.40;;;;;;;;;;5030330;28;20029;-77
2023/02/26 08:11:17;;;;;;;3.60;0.63;;;;;;;;;;5031586;28;20024;-77
2023/02/26 08:13:42;;;;;;;4.22;0.70;;;;;;;;;;5048238;28;20098;-77
2023/02/26 08:16:08;;;;;;;1.98;0.65;;;;;;;;;;5047902;28;20028;-77
2023/02/26 08:18:33;;;;;;;1.42;0.50;;;;;;;;;;5030057;28;20033;-77
2023/02/26 08:20:58;;;;;;;3.47;0.85;;;;;;;;;;5038704;28;20035;-76
2023/02/26 08:23:25;;;;;;;1.42;0.70;;;;;;;;;;5044080;28;20120;-77
2023/02/26 08:25:59;;;;;;;2.38;0.40;;;;;;;;;;5031513;28;20120;-77
2023/02/26 08:28:24;;;;;;;3.78;0.50;;;;;;;;;;5036422;28;20029;-77
2023/02/26 08:30:52;;;;;;;2.92;0.57;;;;;;;;;;5030824;28;20115;-77
2023/02/26 08:33:18;;;;;;;0.70;0.43;;;;;;;;;;5047645;28;20029;-77
2023/02/26 08:35:43;;;;;;;1.33;0.50;;;;;;;;;;5046493;28;20131;-77
2023/02/26 08:38:09;;;;;;;1.52;0.57;;;;;;;;;;5040183;28;20074;-77
2023/02/26 08:40:34;;;;;;;1.60;0.45;;;;;;;;;;5042857;28;20020;-77
2023/02/26 08:43:00;;;;;;;3.03;0.50;;;;;;;;;;5028576;28;20071;-77
2023/02/26 08:45:25;;;;;;;1.38;0.60;;;;;;;;;;5025295;28;20392;-76
2023/02/26 08:47:52;;;;;;;1.70;0.55;;;;;;;;;;5029621;28;20058;-77
2023/02/26 08:50:18;;;;;;;3.60;0.77;;;;;;;;;;5050995;28;20515;-77
2023/02/26 08:52:43;;;;;;;1.55;0.43;;;;;;;;;;5027624;28;20053;-77
2023/02/26 08:55:09;;;;;;;1.65;0.70;;;;;;;;;;5031594;28;20028;-77
2023/02/26 08:57:35;;;;;;;1.30;0.40;;;;;;;;;;5047281;28;20021;-77
2023/02/26 09:00:00;;;;;;;1.95;0.88;;;;;;;;;;5044365;28;20036;-77
2023/02/26 09:02:25;;;;;;;3.60;0.70;;;;;;;;;;5030553;28;20129;-77
2023/02/26 09:04:51;;;;;;;1.35;0.50;;;;;;;;;;5028889;28;20026;-77
2023/02/26 09:07:16;;;;;;;2.35;0.43;;;;;;;;;;5049514;28;20112;-77
2023/02/26 09:09:42;;;;;;;5.70;0.70;;;;;;;;;;5046255;28;20032;-77
2023/02/26 09:12:07;;;;;;;1.50;0.50;;;;;;;;;;5046500;28;20029;-77
2023/02/26 09:14:32;;;;;;;1.88;0.55;;;;;;;;;;5041054;28;20425;-77
2023/02/26 09:16:58;;;;;;;2.63;0.60;;;;;;;;;;5025249;28;20029;-76
2023/02/26 09:19:23;;;;;;;1.67;0.70;;;;;;;;;;5028817;28;20033;-77
2023/02/26 09:21:48;;;;;;;3.65;0.70;;;;;;;;;;5046638;28;20112;-77
2023/02/26 09:24:14;;;;;;;2.70;0.73;;;;;;;;;;5048492;28;20021;-77
2023/02/26 09:26:39;;;;;;;3.25;0.50;;;;;;;;;;5022564;28;20583;-77
2023/02/26 09:29:05;;;;;;;4.93;0.90;;;;;;;;;;5040592;28;20067;-76
2023/02/26 09:31:31;;;;;;;2.33;0.57;;;;;;;;;;5024674;28;20025;-77
2023/02/26 09:33:56;;;;;;;2.65;0.60;;;;;;;;;;5047518;28;20032;-77
2023/02/26 09:36:22;;;;;;;2.35;0.50;;;;;;;;;;5034779;28;20396;-76
2023/02/26 09:38:47;;;;;;;1.85;0.40;;;;;;;;;;5035113;28;20067;-77
2023/02/26 09:41:21;;;;;;;1.75;0.50;;;;;;;;;;5040653;28;20115;-76
2023/02/26 09:43:58;;;;;;;1.98;0.40;;;;;;;;;;5036795;28;20029;-77
2023/02/26 09:46:54;;;;;;;2.42;0.55;;;;;;;;;;5038887;28;20053;-77
2023/02/26 09:49:25;;;;;;;3.13;0.40;;;;;;;;;;5048057;28;20037;-77
2023/02/26 09:51:57;;;;;;;3.03;0.50;;;;;;;;;;5022999;28;20046;-77
2023/02/26 09:54:25;;;;;;;2.03;0.52;;;;;;;;;;5036421;28;20498;-77
2023/02/26 09:56:54;;;;;;;3.22;0.63;;;;;;;;;;5024158;28;20065;-77
2023/02/26 09:59:19;;;;;;;2.67;0.40;;;;;;;;;;5036804;28;20540;-77
2023/02/26 10:01:54;;;;;;;1.95;0.40;;;;;;;;;;5041410;28;20127;-76
2023/02/26 10:04:42;;;;;;;0.73;0.22;;;;;;;;;;5038571;28;20481;-77
2023/02/26 10:07:28;;;;;;;1.70;0.40;;;;;;;;;;5034636;28;20025;-77
2023/02/26 10:10:15;;;;;;;1.48;0.45;;;;;;;;;;5037139;28;20028;-77
2023/02/26 10:12:43;;;;;;;1.27;0.50;;;;;;;;;;5045618;28;20493;-77
2023/02/26 10:15:14;;;;;;;2.03;0.30;;;;;;;;;;5022070;28;20029;-76
2023/02/26 10:18:00;;;;;;;1.30;0.40;;;;;;;;;;5036967;28;20115;-77
2023/02/26 10:21:01;;;;;;;2.63;0.77;;;;;;;;;;5040551;28;20044;-77
2023/02/26 10:23:41;;;;;;;2.22;0.35;;;;;;;;;;5046279;28;20033;-77
2023/02/26 10:26:26;;;;;;;2.45;0.40;;;;;;;;;;5032659;28;20055;-77
2023/02/26 10:29:03;;;;;;;1.40;0.32;;;;;;;;;;5038292;28;20036;-76
2023/02/26 10:31:43;;;;;;;1.40;0.40;;;;;;;;;;5045473;28;20636;-79
2023/02/26 10:34:25;;;;;;;1.40;0.40;;;;;;;;;;5046093;28;20027;-77
2023/02/26 10:37:15;;;;;;;2.10;0.32;;;;;;;;;;5045077;28;20571;-77
2023/02/26 10:39:52;;;;;;;2.20;0.52;;;;;;;;;;5048950;28;20090;-77
2023/02/26 10:42:36;;;;;;;1.85;0.40;;;;;;;;;;5044026;28;20036;-77
2023/02/26 10:45:23;;;;;;;0.82;0.22;;;;;;;;;;5043826;28;20764;-77
2023/02/26 10:48:13;;;;;;;3.30;0.40;;;;;;;;;;5026821;28;20033;-77
2023/02/26 10:50:49;;;;;;;1.55;0.50;;;;;;;;;;5050156;28;20484;-77
2023/02/26 10:53:14;;;;;;;0.75;0.30;;;;;;;;;;5033710;28;20029;-77
2023/02/26 10:55:52;;;;;;;1.70;0.50;;;;;;;;;;5043410;28;20047;-77
2023/02/26 10:58:23;;;;;;;2.90;0.40;;;;;;;;;;5026906;28;20032;-77
2023/02/26 11:00:52;;;;;;;2.70;0.38;;;;;;;;;;5040906;28;20035;-77
2023/02/26 11:03:24;;;;;;;0.57;0.30;;;;;;;;;;5032417;28;20075;-77
2023/02/26 11:05:49;;;;;;;1.98;0.40;;;;;;;;;;5029125;28;20083;-77
2023/02/26 11:08:24;;;;;;;1.95;0.50;;;;;;;;;;5042603;28;20032;-77
2023/02/26 11:10:56;;;;;;;2.72;0.50;;;;;;;;;;5045802;28;20029;-77
2023/02/26 11:13:23;;;;;;;1.33;0.50;;;;;;;;;;5039562;28;20028;-77
2023/02/26 11:15:52;;;;;;;3.25;0.57;;;;;;;;;;5047575;28;20024;-77
2023/02/26 11:18:23;;;;;;;1.40;0.45;;;;;;;;;;5038926;28;20496;-77
2023/02/26 11:20:54;;;;;;;1.77;0.40;;;;;;;;;;5022923;28;20765;-76
2023/02/26 11:23:21;;;;;;;1.20;0.30;;;;;;;;;;5014403;28;20040;-76
2023/02/26 11:25:56;;;;;;;2.22;0.50;;;;;;;;;;5021540;28;20083;-77
2023/02/26 11:28:31;;;;;;;1.42;0.40;;;;;;;;;;5021280;28;20050;-76
2023/02/26 11:31:00;;;;;;;2.30;0.45;;;;;;;;;;5024260;28;20040;-76
2023/02/26 11:33:36;;;;;;;1.13;0.65;;;;;;;;;;5037437;28;20029;-76
2023/02/26 11:36:11;;;;;;;1.27;0.40;;;;;;;;;;5031729;28;20142;-77
2023/02/26 11:38:37;;;;;;;1.75;0.38;;;;;;;;;;5040997;28;20329;-77
2023/02/26 11:41:04;;;;;;;0.43;0.30;;;;;;;;;;5046795;28;20032;-77
2023/02/26 11:43:38;;;;;;;1.17;0.45;;;;;;;;;;5037557;28;20041;-76
2023/02/26 11:46:04;;;;;;;1.40;0.32;;;;;;;;;;5035970;28;20500;-77
2023/02/26 11:48:41;;;;;;;2.40;0.50;;;;;;;;;;5030563;28;20123;-77
2023/02/26 11:51:11;;;;;;;1.27;0.30;;;;;;;;;;5027803;28;20071;-77
2023/02/26 11:53:48;;;;;;;1.00;0.40;;;;;;;;;;5019796;28;20029;-76
2023/02/26 11:56:25;;;;;;;0.93;0.40;;;;;;;;;;5044577;28;20028;-76
2023/02/26 11:58:54;;;;;;;0.80;0.40;;;;;;;;;;5024734;28;20508;-76
2023/02/26 12:01:21;;;;;;;2.58;0.90;;;;;;;;;;5041995;28;20104;-77
2023/02/26 12:03:49;;;;;;;0.85;0.35;;;;;;;;;;5041659;28;20044;-77
2023/02/26 12:06:23;;;;;;;0.90;0.40;;;;;;;;;;5039872;28;20028;-77
2023/02/26 12:08:51;;;;;;;2.55;0.60;;;;;;;;;;5026212;28;20036;-77
2023/02/26 12:11:35;;;;;;;3.35;0.40;;;;;;;;;;5037701;28;20114;-77
2023/02/26 12:14:23;;;;;;;0.77;0.43;;;;;;;;;;5029168;28;20416;-77
2023/02/26 12:16:51;;;;;;;1.92;0.60;;;;;;;;;;5029622;28;20585;-77
2023/02/26 12:19:48;;;;;;;2.45;0.40;;;;;;;;;;5022608;28;20421;-77
2023/02/26 12:22:28;;;;;;;2.97;0.50;;;;;;;;;;5039275;28;20021;-77
2023/02/26 12:25:12;;;;;;;1.30;0.43;;;;;;;;;;5030580;28;20029;-77
2023/02/26 12:27:49;;;;;;;1.33;0.40;;;;;;;;;;5024067;28;20571;-77
2023/02/26 12:30:15;;;;;;;0.90;0.40;;;;;;;;;;5025003;28;20400;-77
2023/02/26 12:33:22;;;;;;;0.95;0.40;;;;;;;;;;5024864;28;20037;-77
2023/02/26 12:36:06;;;;;;;1.63;0.40;;;;;;;;;;5016109;28;20041;-77
2023/02/26 12:38:54;;;;;;;2.90;0.60;;;;;;;;;;5029185;28;20112;-76
2023/02/26 12:41:26;;;;;;;1.48;0.50;;;;;;;;;;5036913;28;20029;-77
2023/02/26 12:44:01;;;;;;;2.00;0.60;;;;;;;;;;5044378;28;20040;-77
2023/02/26 12:46:53;;;;;;;1.75;0.52;;;;;;;;;;5048276;28;20065;-77
2023/02/26 12:49:34;;;;;;;1.13;0.38;;;;;;;;;;5010886;28;20037;-77
2023/02/26 12:52:34;;;;;;;1.13;0.50;;;;;;;;;;5049114;28;20480;-77
2023/02/26 12:55:27;;;;;;;0.60;0.30;;;;;;;;;;5027707;28;20512;-77
2023/02/26 12:58:08;;;;;;;0.88;0.40;;;;;;;;;;5042716;28;20049;-77
2023/02/26 13:00:51;;;;;;;1.35;0.38;;;;;;;;;;5028650;28;20063;-77
2023/02/26 13:03:29;;;;;;;1.57;0.40;;;;;;;;;;5023367;28;20025;-77
2023/02/26 13:06:18;;;;;;;1.83;0.32;;;;;;;;;;5017487;28;20028;-77
2023/02/26 13:08:49;;;;;;;0.93;0.38;;;;;;;;;;5023549;28;20039;-78
2023/02/26 13:11:47;;;;;;;0.70;0.47;;;;;;;;;;5016173;28;20488;-77
2023/02/26 13:14:13;;;;;;;0.38;0.30;;;;;;;;;;4995532;28;20037;-77
2023/02/26 13:16:50;;;;;;;1.45;0.55;;;;;;;;;;5033329;28;20654;-77
2023/02/26 13:19:30;;;;;;;0.65;0.30;;;;;;;;;;5036651;28;20851;-77
2023/02/26 13:22:05;;;;;;;0.40;0.30;;;;;;;;;;5018872;28;20095;-77
2023/02/26 13:24:35;;;;;;;1.45;0.50;;;;;;;;;;5018519;28;20028;-77
2023/02/26 13:27:03;;;;;;;0.80;0.40;;;;;;;;;;5031112;28;20029;-77
2023/02/26 13:29:36;;;;;;;3.03;0.38;;;;;;;;;;5035972;28;20086;-77
2023/02/26 13:32:12;;;;;;;1.02;0.30;;;;;;;;;;5020195;28;21463;-77
2023/02/26 13:34:57;;;;;;;1.95;0.43;;;;;;;;;;5023721;28;20029;-78
2023/02/26 13:37:46;;;;;;;2.10;0.60;;;;;;;;;;5023646;28;20037;-78
2023/02/26 13:40:29;;;;;;;2.35;0.40;;;;;;;;;;5007940;28;20118;-78
2023/02/26 13:43:18;;;;;;;0.88;0.30;;;;;;;;;;5034306;28;20112;-78
2023/02/26 13:46:11;;;;;;;1.83;0.60;;;;;;;;;;5022815;28;20025;-77
2023/02/26 13:49:03;;;;;;;0.95;0.50;;;;;;;;;;5038319;28;20040;-78
2023/02/26 13:51:39;;;;;;;1.23;0.40;;;;;;;;;;5039142;28;21012;-78
2023/02/26 13:54:12;;;;;;;0.20;0.20;;;;;;;;;;5020347;28;20508;-77
2023/02/26 13:56:38;;;;;;;0.77;0.32;;;;;;;;;;5024145;28;20044;-78
2023/02/26 13:59:13;;;;;;;1.98;0.80;;;;;;;;;;5024649;28;20029;-78
2023/02/26 14:01:57;;;;;;;1.20;0.28;;;;;;;;;;5029083;28;20540;-78
2023/02/26 14:04:29;;;;;;;1.27;0.45;;;;;;;;;;5039234;28;20029;-78
2023/02/26 14:07:04;;;;;;;0.60;0.30;;;;;;;;;;5041172;28;20059;-78
2023/02/26 14:09:45;;;;;;;0.98;0.45;;;;;;;;;;5041793;28;20112;-78
2023/02/26 14:12:22;;;;;;;1.75;0.30;;;;;;;;;;5041832;28;20025;-78
2023/02/26 14:14:58;;;;;;;0.73;0.30;;;;;;;;;;5040550;28;20036;-77
2023/02/26 14:17:38;;;;;;;0.55;0.28;;;;;;;;;;5041177;28;20111;-77
2023/02/26 14:20:15;;;;;;;1.55;0.52;;;;;;;;;;5025142;28;20804;-78
2023/02/26 14:22:46;;;;;;;0.70;0.30;;;;;;;;;;5022365;28;20621;-78
2023/02/26 14:25:31;;;;;;;1.00;0.32;;;;;;;;;;5038046;28;20029;-77
2023/02/26 14:28:31;;;;;;;1.75;0.40;;;;;;;;;;5037710;28;20031;-78
2023/02/26 14:31:18;;;;;;;0.65;0.30;;;;;;;;;;5020725;28;20778;-78
2023/02/26 14:34:07;;;;;;;1.13;0.30;;;;;;;;;;5040170;28;20037;-77
2023/02/26 14:36:50;;;;;;;0.65;0.30;;;;;;;;;;5016854;28;20057;-78
2023/02/26 14:39:28;;;;;;;0.30;0.20;;;;;;;;;;5039360;28;20037;-78
2023/02/26 14:41:59;;;;;;;0.68;0.30;;;;;;;;;;5022607;28;20037;-78
2023/02/26 14:44:29;;;;;;;1.80;0.40;;;;;;;;;;5015620;28;20436;-78
2023/02/26 14:46:56;;;;;;;1.13;0.40;;;;;;;;;;5036771;28;20040;-77
2023/02/26 14:49:42;;;;;;;1.13;0.30;;;;;;;;;;5035966;28;20087;-78
2023/02/26 14:52:38;;;;;;;0.65;0.30;;;;;;;;;;5027219;28;20037;-78
2023/02/26 14:55:34;;;;;;;0.95;0.30;;;;;;;;;;5017783;28;20501;-78
2023/02/26 14:58:38;;;;;;;0.55;0.35;;;;;;;;;;5040956;28;20029;-78
2023/02/26 15:01:28;;;;;;;0.60;0.30;;;;;;;;;;5022502;28;20021;-77
2023/02/26 15:04:15;;;;;;;1.20;0.35;;;;;;;;;;5022671;28;20126;-78
2023/02/26 15:07:02;;;;;;;0.30;0.20;;;;;;;;;;5024121;28;20025;-78
2023/02/26 15:09:36;;;;;;;0.60;0.30;;;;;;;;;;5023195;28;20029;-78
2023/02/26 15:12:21;;;;;;;0.45;0.30;;;;;;;;;;5017812;28;20040;-78
2023/02/26 15:15:17;;;;;;;1.02;0.32;;;;;;;;;;5040292;28;20024;-78